Time;durP1;ratioP1;P1;durP2;ratioP2;P2;SDS_P1;SDS_P2;PMS_P1;PMS_P2;Temp;Humidity;BMP_temperature;BMP_pressure;BME280_temperature;BME280_humidity;BME280_pressure;Samples;Min_cycle;Max_cycle;Signal;HPM_P1;HPM_P2
2021/09/05 00:02:10;;;;;;;6.28;4.53;;;;;;;18.57;63.21;100604.50;4995036;28;20438;-73
2021/09/05 00:04:36;;;;;;;5.63;4.25;;;;;;;18.48;64.15;100598.50;4993549;28;20057;-73
2021/09/05 00:07:05;;;;;;;8.50;4.50;;;;;;;18.44;64.07;100608.78;5003840;28;20037;-73
2021/09/05 00:09:30;;;;;;;5.93;4.30;;;;;;;18.41;64.19;100611.84;4986907;28;20053;-72
2021/09/05 00:11:55;;;;;;;6.32;4.15;;;;;;;18.41;64.47;100611.84;4981171;28;20194;-73
2021/09/05 00:14:21;;;;;;;7.60;4.80;;;;;;;18.36;64.68;100610.81;4993238;28;20040;-73
2021/09/05 00:16:47;;;;;;;4.77;3.90;;;;;;;18.46;64.71;100616.63;4996028;28;20437;-73
2021/09/05 00:19:13;;;;;;;5.78;4.50;;;;;;;18.59;64.34;100605.09;4992855;28;20700;-72
2021/09/05 00:21:39;;;;;;;5.78;4.65;;;;;;;18.42;64.81;100608.19;4993770;28;20045;-73
2021/09/05 00:24:05;;;;;;;5.18;4.03;;;;;;;18.29;65.82;100601.94;4992256;28;20038;-73
2021/09/05 00:26:32;;;;;;;;;;;;;;;18.19;68.30;100613.03;4994091;28;20057;-73
2021/09/05 00:28:59;;;;;;;5.03;3.70;;;;;;;18.11;66.09;100605.97;5007123;28;20033;-73
2021/09/05 00:31:27;;;;;;;4.85;3.72;;;;;;;17.97;66.58;100602.44;5013688;22;20042;-72
2021/09/05 00:33:58;;;;;;;5.15;4.10;;;;;;;17.89;67.92;100602.59;4988012;28;20038;-73
2021/09/05 00:36:24;;;;;;;9.88;4.90;;;;;;;17.81;67.63;100603.56;4973835;28;20037;-74
2021/09/05 00:38:50;;;;;;;5.88;4.50;;;;;;;17.90;67.03;100606.94;4988457;28;20035;-73
2021/09/05 00:41:16;;;;;;;6.00;4.50;;;;;;;17.96;66.62;100614.13;4981377;28;20045;-73
2021/09/05 00:44:02;;;;;;;6.47;4.57;;;;;;;17.98;66.28;100614.78;4987880;28;20375;-73
2021/09/05 00:46:30;;;;;;;7.43;5.13;;;;;;;17.94;66.91;100615.38;4974001;28;20037;-73
2021/09/05 00:48:56;;;;;;;6.63;4.80;;;;;;;17.82;68.00;100618.59;4981550;28;20037;-73
2021/09/05 00:51:25;;;;;;;6.90;4.60;;;;;;;17.82;67.17;100607.06;4981768;28;20035;-73
2021/09/05 00:53:52;;;;;;;7.15;4.50;;;;;;;17.69;69.21;100613.16;4989367;28;20113;-73
2021/09/05 00:56:19;;;;;;;8.43;5.57;;;;;;;17.68;69.17;100613.34;4978079;28;20094;-74
2021/09/05 00:58:46;;;;;;;4.47;3.75;;;;;;;17.68;68.68;100611.47;4969078;28;20808;-73
2021/09/05 01:01:12;;;;;;;;;;;;;;;17.56;70.12;100621.06;4975322;28;20065;-73
2021/09/05 01:03:38;;;;;;;7.55;5.28;;;;;;;17.56;69.04;100621.06;4977518;28;19917;-73
2021/09/05 01:06:04;;;;;;;5.20;4.20;;;;;;;17.54;69.65;100621.28;4982628;28;20413;-72
2021/09/05 01:08:30;;;;;;;5.15;4.35;;;;;;;17.47;70.63;100628.44;4976213;28;20090;-75
2021/09/05 01:10:59;;;;;;;7.18;4.82;;;;;;;17.54;68.89;100637.31;4989875;28;20566;-74
2021/09/05 01:13:25;;;;;;;6.47;4.40;;;;;;;17.50;69.67;100632.56;4985814;28;20125;-73
2021/09/05 01:15:51;;;;;;;5.20;4.15;;;;;;;17.47;70.17;100640.94;4988267;28;20434;-73
2021/09/05 01:18:17;;;;;;;5.90;4.22;;;;;;;17.46;69.40;100642.81;4977179;28;20062;-73
2021/09/05 01:20:44;;;;;;;6.70;5.32;;;;;;;17.71;68.07;100631.66;4976873;28;20113;-73
2021/09/05 01:23:10;;;;;;;7.85;5.38;;;;;;;17.70;68.37;100633.50;4983106;28;20035;-73
2021/09/05 01:25:40;;;;;;;7.53;5.03;;;;;;;17.75;68.48;100632.91;4975362;28;20126;-74
2021/09/05 01:28:11;;;;;;;7.13;5.47;;;;;;;17.80;68.32;100635.81;4975050;28;20058;-74
2021/09/05 01:30:37;;;;;;;6.35;5.20;;;;;;;17.77;68.67;100636.22;4973619;28;20041;-74
2021/09/05 01:33:03;;;;;;;8.75;5.57;;;;;;;17.75;68.74;100652.47;4976063;28;20381;-74
2021/09/05 01:35:32;;;;;;;7.78;5.85;;;;;;;17.79;68.86;100639.53;4987814;28;20038;-73
2021/09/05 01:37:58;;;;;;;7.13;5.38;;;;;;;17.70;69.98;100649.56;4972395;28;20035;-73
2021/09/05 01:40:23;;;;;;;8.27;5.78;;;;;;;17.74;69.01;100648.16;4970658;28;20547;-73
2021/09/05 01:42:48;;;;;;;6.43;4.95;;;;;;;17.70;69.51;100649.56;4980206;28;20034;-73
2021/09/05 01:45:13;;;;;;;7.30;5.45;;;;;;;17.65;69.33;100652.00;4979973;28;20043;-73
2021/09/05 01:47:39;;;;;;;;;;;;;;;17.63;69.71;100654.84;4984793;28;20034;-73
2021/09/05 01:50:04;;;;;;;7.13;5.50;;;;;;;17.61;69.83;100654.25;4985879;28;20278;-74
2021/09/05 01:52:30;;;;;;;7.43;5.60;;;;;;;17.62;70.24;100653.22;4983139;28;20415;-73
2021/09/05 01:54:56;;;;;;;5.50;4.80;;;;;;;17.72;69.90;100650.19;4981828;28;20407;-73
2021/09/05 01:57:22;;;;;;;;;;;;;;;17.77;70.08;100652.28;4977480;28;20219;-73
2021/09/05 01:59:48;;;;;;;;;;;;;;;17.78;69.75;100648.56;4982773;28;19926;-73
2021/09/05 02:02:14;;;;;;;9.82;6.22;;;;;;;17.79;69.35;100650.25;4975503;28;19933;-74
2021/09/05 02:04:42;;;;;;;8.95;6.47;;;;;;;17.90;69.42;100655.09;4982525;28;20034;-73
2021/09/05 02:07:08;;;;;;;8.95;6.47;;;;;;;17.87;69.30;100654.63;4981771;28;20463;-74
2021/09/05 02:09:34;;;;;;;8.38;6.25;;;;;;;17.71;70.57;100648.56;4979936;28;20089;-74
2021/09/05 02:12:00;;;;;;;9.88;6.80;;;;;;;17.81;69.46;100651.72;4978752;28;20387;-74
2021/09/05 02:14:26;;;;;;;8.90;6.60;;;;;;;17.79;70.15;100650.25;4985982;28;20046;-74
2021/09/05 02:16:52;;;;;;;8.80;6.47;;;;;;;17.69;70.73;100660.47;4987850;28;20051;-74
2021/09/05 02:19:18;;;;;;;9.07;6.72;;;;;;;17.56;71.15;100656.66;4975711;28;20069;-74
2021/09/05 02:21:44;;;;;;;9.43;6.60;;;;;;;17.60;70.20;100655.25;4988616;28;20446;-74
2021/09/05 02:24:11;;;;;;;11.40;7.15;;;;;;;17.69;70.51;100655.13;4985475;28;20027;-74
2021/09/05 02:26:38;;;;;;;10.25;7.18;;;;;;;17.74;71.49;100663.38;4984490;28;20664;-74
2021/09/05 02:29:05;;;;;;;9.90;7.00;;;;;;;17.62;71.32;100652.38;4975720;28;20126;-74
2021/09/05 02:31:30;;;;;;;10.93;7.15;;;;;;;17.69;70.62;100665.81;4981777;28;20022;-74
2021/09/05 02:33:56;;;;;;;9.57;6.90;;;;;;;17.70;70.70;100667.44;4985124;28;20031;-74
2021/09/05 02:36:26;;;;;;;10.15;7.35;;;;;;;17.76;71.06;100666.69;4988819;28;20386;-74
2021/09/05 02:38:56;;;;;;;8.32;6.63;;;;;;;17.81;70.84;100669.63;4988060;28;20400;-74
2021/09/05 02:41:22;;;;;;;;;;;;;;;17.79;70.82;100664.44;4981479;28;20403;-75
2021/09/05 02:43:48;;;;;;;;;;;;;;;17.76;70.87;100666.69;4992351;28;19948;-75
2021/09/05 02:46:16;;;;;;;;;;;;;;;17.65;70.98;100673.38;4984902;28;19918;-75
2021/09/05 02:48:42;;;;;;;10.55;6.93;;;;;;;17.61;71.10;100670.28;4991911;28;19913;-74
2021/09/05 02:51:08;;;;;;;;;;;;;;;17.55;71.91;100678.25;4986362;28;20034;-74
2021/09/05 02:53:34;;;;;;;10.40;6.97;;;;;;;17.57;71.55;100668.19;4988234;28;19976;-74
2021/09/05 02:56:00;;;;;;;10.85;7.70;;;;;;;17.60;71.28;100675.81;4989380;28;20074;-73
2021/09/05 02:58:26;;;;;;;8.93;6.93;;;;;;;17.62;71.82;100677.28;4984388;28;20892;-75
2021/09/05 03:00:53;;;;;;;10.75;7.60;;;;;;;17.58;71.65;100673.31;4979698;28;20070;-75
2021/09/05 03:03:19;;;;;;;9.82;6.95;;;;;;;17.39;73.03;100677.50;4973820;28;20050;-75
2021/09/05 03:05:45;;;;;;;10.38;7.00;;;;;;;17.29;72.58;100670.84;4965992;28;20469;-75
2021/09/05 03:08:12;;;;;;;9.18;6.88;;;;;;;17.18;72.34;100680.19;4977147;28;20074;-75
2021/09/05 03:10:38;;;;;;;8.32;6.20;;;;;;;17.05;74.15;100672.88;4972833;28;20022;-75
2021/09/05 03:13:04;;;;;;;10.32;7.22;;;;;;;17.03;73.47;100671.41;4988551;28;20247;-74
2021/09/05 03:15:33;;;;;;;10.65;7.57;;;;;;;16.92;73.23;100667.38;4987608;28;20041;-75
2021/09/05 03:17:59;;;;;;;9.82;7.40;;;;;;;16.85;73.35;100667.34;4974954;28;20399;-74
2021/09/05 03:20:25;;;;;;;11.00;7.90;;;;;;;16.79;73.50;100670.75;4984321;28;20051;-74
2021/09/05 03:22:51;;;;;;;9.80;7.32;;;;;;;16.67;74.11;100670.38;4991539;28;20042;-74
2021/09/05 03:25:18;;;;;;;9.95;7.20;;;;;;;16.63;73.90;100666.44;5000109;28;20038;-74
2021/09/05 03:27:44;;;;;;;10.13;7.75;;;;;;;16.51;74.79;100668.75;4990345;28;20437;-73
2021/09/05 03:30:10;;;;;;;9.00;7.07;;;;;;;16.54;73.81;100680.91;4980629;28;20041;-74
2021/09/05 03:32:36;;;;;;;10.50;6.95;;;;;;;16.46;74.34;100683.69;4992980;28;20121;-74
2021/09/05 03:35:02;;;;;;;11.50;7.97;;;;;;;16.34;76.34;100678.81;4991389;28;20606;-73
2021/09/05 03:37:27;;;;;;;9.57;7.43;;;;;;;16.34;75.48;100683.34;4978991;28;20053;-74
2021/09/05 03:39:53;;;;;;;9.38;7.57;;;;;;;16.27;75.59;100683.25;4989197;28;20038;-73
2021/09/05 03:42:18;;;;;;;9.48;7.13;;;;;;;16.19;78.25;100682.53;4985046;28;20074;-74
2021/09/05 03:44:43;;;;;;;11.70;8.55;;;;;;;16.19;75.99;100679.88;4986497;28;20176;-74
2021/09/05 03:47:08;;;;;;;10.50;7.97;;;;;;;16.08;76.69;100679.28;4979878;28;20034;-75
2021/09/05 03:49:34;;;;;;;14.70;7.88;;;;;;;15.97;78.10;100682.44;4991926;28;20096;-74
2021/09/05 03:51:59;;;;;;;10.73;7.65;;;;;;;15.92;76.32;100690.13;4977434;28;20030;-74
2021/09/05 03:54:25;;;;;;;11.23;8.35;;;;;;;15.80;77.66;100681.78;4985159;28;20439;-74
2021/09/05 03:56:50;;;;;;;9.52;7.20;;;;;;;15.77;76.97;100687.47;4979468;28;20042;-74
2021/09/05 03:59:15;;;;;;;11.02;8.25;;;;;;;15.77;77.20;100692.78;4973008;28;20503;-74
2021/09/05 04:01:41;;;;;;;10.65;8.13;;;;;;;15.73;80.91;100688.84;4973610;28;20495;-74
2021/09/05 04:04:07;;;;;;;10.27;7.68;;;;;;;15.77;79.32;100686.63;4981898;28;20035;-74
2021/09/05 04:06:32;;;;;;;11.80;8.38;;;;;;;15.80;79.99;100689.78;4984746;28;20045;-74
2021/09/05 04:09:01;;;;;;;11.18;8.18;;;;;;;15.77;81.17;100692.78;4974975;28;20414;-74
2021/09/05 04:11:26;;;;;;;13.65;8.30;;;;;;;15.78;81.26;100691.81;4975372;28;20064;-74
2021/09/05 04:13:51;;;;;;;10.13;8.18;;;;;;;15.76;81.15;100698.31;4981115;28;20053;-74
2021/09/05 04:16:17;;;;;;;10.20;8.23;;;;;;;15.73;80.24;100701.34;4992017;28;20038;-74
2021/09/05 04:18:43;;;;;;;9.88;7.85;;;;;;;15.69;80.94;100701.66;4988766;28;20038;-74
2021/09/05 04:21:08;;;;;;;9.13;6.93;;;;;;;15.70;80.28;100705.19;4979378;28;20027;-74
2021/09/05 04:23:34;;;;;;;10.80;8.05;;;;;;;15.66;79.28;100707.38;4980862;28;20137;-74
2021/09/05 04:25:59;;;;;;;8.52;6.70;;;;;;;15.68;79.95;100707.16;4973686;28;20035;-74
2021/09/05 04:28:24;;;;;;;10.23;7.28;;;;;;;15.69;79.70;100707.00;4977265;28;20058;-74
2021/09/05 04:30:50;;;;;;;9.35;7.00;;;;;;;15.68;81.78;100704.50;4990181;28;20092;-73
2021/09/05 04:33:15;;;;;;;10.38;7.05;;;;;;;15.66;80.53;100706.53;4979974;28;20112;-74
2021/09/05 04:35:40;;;;;;;10.25;7.32;;;;;;;15.60;81.49;100701.94;4990508;28;20494;-72
2021/09/05 04:38:06;;;;;;;10.80;7.60;;;;;;;15.49;80.73;100704.03;4986460;28;20031;-73
2021/09/05 04:40:31;;;;;;;9.65;7.60;;;;;;;15.41;79.74;100706.75;4983480;28;20039;-73
2021/09/05 04:42:56;;;;;;;8.60;6.75;;;;;;;15.37;79.67;100716.09;4975694;28;20510;-73
2021/09/05 04:45:22;;;;;;;7.75;6.18;;;;;;;15.29;79.87;100718.84;4982000;28;20034;-73
2021/09/05 04:47:47;;;;;;;8.15;6.90;;;;;;;15.21;80.15;100721.56;4989273;28;20402;-74
2021/09/05 04:50:12;;;;;;;9.15;7.75;;;;;;;15.10;80.06;100725.44;4989735;28;20112;-74
2021/09/05 04:52:38;;;;;;;5.93;5.20;;;;;;;15.07;81.92;100731.13;4988668;28;20740;-74
2021/09/05 04:55:04;;;;;;;5.97;5.33;;;;;;;15.02;81.68;100728.19;4988581;28;20407;-73
2021/09/05 04:57:29;;;;;;;4.40;3.90;;;;;;;15.14;80.86;100725.94;4981649;28;20505;-74
2021/09/05 04:59:54;;;;;;;3.87;3.47;;;;;;;15.16;80.54;100731.91;4978056;28;20499;-74
2021/09/05 05:02:20;;;;;;;3.97;3.40;;;;;;;15.18;80.35;100729.88;4971397;28;20420;-74
2021/09/05 05:04:45;;;;;;;4.28;3.40;;;;;;;15.25;80.32;100737.03;4972504;28;20432;-74
2021/09/05 05:07:10;;;;;;;4.00;3.40;;;;;;;15.29;80.67;100737.47;4984555;28;20458;-75
2021/09/05 05:09:43;;;;;;;6.60;5.78;;;;;;;15.19;80.45;100739.56;4985493;28;20494;-75
2021/09/05 05:12:08;;;;;;;9.18;6.65;;;;;;;15.05;80.13;100733.16;4973739;28;20019;-74
2021/09/05 05:14:34;;;;;;;4.88;4.20;;;;;;;15.07;80.39;100739.13;4981117;28;20405;-74
2021/09/05 05:16:59;;;;;;;6.60;5.35;;;;;;;15.11;82.40;100744.91;4986865;28;20035;-74
2021/09/05 05:19:24;;;;;;;7.53;6.22;;;;;;;15.13;81.74;100746.41;4987385;28;20569;-75
2021/09/05 05:21:49;;;;;;;9.27;7.60;;;;;;;15.10;82.04;100759.25;4983323;28;20030;-75
2021/09/05 05:24:15;;;;;;;8.98;6.93;;;;;;;15.10;80.83;100759.25;4977428;28;20039;-75
2021/09/05 05:26:40;;;;;;;8.18;6.75;;;;;;;15.09;80.68;100763.75;4983130;28;20495;-75
2021/09/05 05:29:05;;;;;;;;;;;;;;;15.10;80.75;100762.75;4976829;28;20090;-75
2021/09/05 05:31:30;;;;;;;;;;;;;;;15.10;81.24;100764.59;4972320;28;19918;-75
2021/09/05 05:33:56;;;;;;;;;;;;;;;15.15;82.05;100772.88;4982764;28;19933;-75
2021/09/05 05:36:21;;;;;;;10.70;8.20;;;;;;;15.27;81.85;100758.97;4977876;28;20005;-73
2021/09/05 05:38:46;;;;;;;10.27;8.05;;;;;;;15.51;81.13;100768.63;4982917;28;20085;-74
2021/09/05 05:41:13;;;;;;;9.63;7.32;;;;;;;15.86;79.35;100776.22;4979707;28;20046;-74
2021/09/05 05:43:39;;;;;;;8.77;7.03;;;;;;;16.23;79.51;100775.38;4982206;28;20414;-73
2021/09/05 05:46:04;;;;;;;11.35;8.07;;;;;;;16.50;78.13;100775.75;4982686;28;20114;-75
2021/09/05 05:48:29;;;;;;;9.13;7.63;;;;;;;16.69;77.48;100777.84;4989241;28;20507;-74
2021/09/05 05:50:57;;;;;;;8.63;6.85;;;;;;;16.77;77.18;100772.38;4981511;28;20030;-74
2021/09/05 05:53:22;;;;;;;10.05;6.43;;;;;;;17.05;76.87;100777.06;4982053;28;20038;-74
2021/09/05 05:55:48;;;;;;;8.68;6.45;;;;;;;17.50;76.89;100771.59;4989569;28;20066;-74
2021/09/05 05:58:13;;;;;;;8.30;6.10;;;;;;;17.98;76.64;100782.50;4984958;28;20081;-74
2021/09/05 06:00:39;;;;;;;9.93;7.30;;;;;;;18.32;75.78;100776.34;4981504;28;20043;-75
2021/09/05 06:03:05;;;;;;;7.25;5.45;;;;;;;18.62;71.65;100774.28;4977054;28;20030;-75
2021/09/05 06:05:31;;;;;;;8.27;6.03;;;;;;;18.95;70.58;100778.97;4979330;28;20041;-74
2021/09/05 06:07:56;;;;;;;10.60;8.02;;;;;;;19.29;72.24;100778.03;4986952;28;20391;-75
2021/09/05 06:10:22;;;;;;;9.65;6.50;;;;;;;19.41;72.08;100782.81;4970693;28;20615;-74
2021/09/05 06:12:47;;;;;;;11.50;7.45;;;;;;;19.72;71.42;100785.75;4986787;28;20062;-75
2021/09/05 06:15:12;;;;;;;6.30;5.20;;;;;;;19.76;65.64;100788.03;4981700;28;21167;-74
2021/09/05 06:17:38;;;;;;;5.90;4.90;;;;;;;20.30;70.48;100786.97;4981973;28;20403;-74
2021/09/05 06:20:06;;;;;;;9.77;7.63;;;;;;;20.56;67.10;100786.91;4973792;28;20038;-74
2021/09/05 06:22:31;;;;;;;7.63;6.15;;;;;;;20.87;66.53;100793.44;4988887;28;20402;-75
2021/09/05 06:24:56;;;;;;;8.37;7.10;;;;;;;21.18;64.63;100792.66;4976695;28;20400;-76
2021/09/05 06:27:22;;;;;;;6.70;5.60;;;;;;;21.26;64.43;100794.28;4991776;28;20410;-74
2021/09/05 06:29:47;;;;;;;6.90;5.93;;;;;;;21.34;62.22;100798.59;4988379;28;20406;-74
2021/09/05 06:32:12;;;;;;;7.37;6.30;;;;;;;21.66;62.81;100796.72;4970815;28;20800;-75
2021/09/05 06:34:37;;;;;;;6.53;5.57;;;;;;;21.95;62.13;100805.19;4985772;28;20402;-75
2021/09/05 06:37:03;;;;;;;7.63;6.73;;;;;;;22.14;59.53;100806.88;4989437;28;20418;-75
2021/09/05 06:39:28;;;;;;;8.17;6.30;;;;;;;22.33;59.44;100812.34;4974041;28;20409;-75
2021/09/05 06:41:54;;;;;;;8.73;6.93;;;;;;;22.28;59.89;100804.94;4971593;28;20593;-75
2021/09/05 06:44:20;;;;;;;8.17;7.37;;;;;;;22.74;57.81;100808.16;4986579;28;20683;-75
2021/09/05 06:46:45;;;;;;;8.48;7.00;;;;;;;22.61;56.62;100809.97;4988258;28;20771;-75
2021/09/05 06:49:10;;;;;;;9.25;7.40;;;;;;;22.85;56.26;100812.81;4974818;28;20035;-75
2021/09/05 06:51:36;;;;;;;7.50;6.22;;;;;;;22.83;56.67;100810.34;4984820;28;20454;-74
2021/09/05 06:54:01;;;;;;;8.50;7.03;;;;;;;23.00;56.18;100815.16;4970153;28;20404;-74
2021/09/05 06:56:27;;;;;;;8.00;6.60;;;;;;;23.13;56.25;100811.47;4982703;28;20437;-74
2021/09/05 06:58:52;;;;;;;8.33;6.80;;;;;;;23.34;55.78;100816.38;4987574;28;20502;-75
2021/09/05 07:01:17;;;;;;;7.70;6.20;;;;;;;23.15;56.06;100809.38;4976655;28;20902;-75
2021/09/05 07:03:43;;;;;;;5.17;4.67;;;;;;;23.31;54.85;100822.19;4970614;28;20397;-74
2021/09/05 07:06:08;;;;;;;7.55;6.10;;;;;;;23.54;56.12;100824.97;4977946;28;20795;-74
2021/09/05 07:08:34;;;;;;;8.20;6.95;;;;;;;24.02;54.13;100815.13;4979228;28;20041;-75
2021/09/05 07:10:59;;;;;;;9.05;7.32;;;;;;;24.23;52.12;100816.41;4974248;28;20135;-74
2021/09/05 07:13:24;;;;;;;9.07;6.63;;;;;;;24.07;53.80;100820.63;4983257;28;20035;-73
2021/09/05 07:15:49;;;;;;;7.95;6.10;;;;;;;24.17;52.93;100820.09;4990236;28;20046;-73
2021/09/05 07:18:15;;;;;;;5.85;4.90;;;;;;;24.46;54.95;100820.19;4991942;28;20038;-74
2021/09/05 07:20:40;;;;;;;7.18;5.53;;;;;;;25.01;52.51;100812.44;4978325;28;20042;-73
2021/09/05 07:23:05;;;;;;;8.35;6.88;;;;;;;25.62;49.49;100826.31;4989427;28;20500;-74
2021/09/05 07:25:31;;;;;;;8.43;6.78;;;;;;;25.41;48.52;100832.44;4976893;28;20499;-73
2021/09/05 07:27:56;;;;;;;8.00;6.55;;;;;;;25.39;49.65;100829.16;4988883;28;20108;-73
2021/09/05 07:30:22;;;;;;;6.72;5.80;;;;;;;25.45;49.47;100836.28;4978645;28;20091;-73
2021/09/05 07:32:48;;;;;;;8.88;6.45;;;;;;;25.76;48.73;100839.53;4978678;28;20495;-74
2021/09/05 07:35:13;;;;;;;7.32;6.05;;;;;;;25.78;48.59;100838.22;4979425;28;20042;-73
2021/09/05 07:37:39;;;;;;;7.03;5.55;;;;;;;25.99;49.24;100842.13;4990839;28;20038;-73
2021/09/05 07:40:05;;;;;;;7.28;6.30;;;;;;;26.50;47.70;100844.75;4977097;28;20537;-73
2021/09/05 07:42:31;;;;;;;6.65;5.50;;;;;;;26.50;47.86;100839.34;4987713;28;20518;-75
2021/09/05 07:44:58;;;;;;;5.57;4.53;;;;;;;26.43;48.85;100855.81;4990950;28;20462;-73
2021/09/05 07:47:24;;;;;;;7.32;5.80;;;;;;;26.58;47.89;100859.84;4989754;28;20510;-74
2021/09/05 07:49:50;;;;;;;7.25;4.80;;;;;;;26.89;49.50;100859.16;4983550;28;20165;-73
2021/09/05 07:52:15;;;;;;;9.05;5.25;;;;;;;27.19;47.55;100867.91;4983178;28;20469;-73
2021/09/05 07:54:40;;;;;;;9.02;6.10;;;;;;;27.74;45.11;100870.44;4992887;28;20463;-73
2021/09/05 07:57:06;;;;;;;7.50;5.27;;;;;;;27.49;45.48;100867.47;4983948;28;20117;-73
2021/09/05 07:59:31;;;;;;;8.48;5.70;;;;;;;27.86;45.16;100867.53;4982400;28;20038;-73
2021/09/05 08:01:56;;;;;;;10.48;7.07;;;;;;;28.42;42.47;100869.88;4982051;28;20475;-73
2021/09/05 08:04:22;;;;;;;7.95;6.38;;;;;;;28.50;42.58;100876.75;4975658;28;20133;-73
2021/09/05 08:06:47;;;;;;;8.15;5.85;;;;;;;28.13;42.40;100875.66;4974129;28;20038;-73
2021/09/05 08:09:12;;;;;;;7.88;6.40;;;;;;;27.74;43.00;100870.44;4985386;28;20534;-73
2021/09/05 08:11:37;;;;;;;7.33;5.83;;;;;;;27.92;43.65;100871.97;4977049;28;20042;-73
2021/09/05 08:14:03;;;;;;;7.07;5.57;;;;;;;28.08;43.70;100867.47;4984606;28;20719;-73
2021/09/05 08:16:28;;;;;;;7.70;6.40;;;;;;;28.74;41.56;100869.81;4983317;28;20101;-73
2021/09/05 08:18:53;;;;;;;8.82;6.43;;;;;;;28.86;40.14;100871.50;4981579;28;20038;-73
2021/09/05 08:21:19;;;;;;;7.32;5.63;;;;;;;28.91;40.71;100872.34;4985769;28;20085;-73
2021/09/05 08:23:44;;;;;;;8.60;6.38;;;;;;;29.11;40.43;100870.81;4986099;28;20042;-74
2021/09/05 08:26:12;;;;;;;6.28;4.93;;;;;;;29.27;41.25;100871.66;4979979;28;20034;-74
2021/09/05 08:28:38;;;;;;;5.22;4.30;;;;;;;29.49;41.41;100877.72;4990165;28;20462;-73
2021/09/05 08:31:03;;;;;;;6.40;4.45;;;;;;;29.98;41.97;100884.59;4977676;28;20045;-73
2021/09/05 08:33:28;;;;;;;5.95;4.70;;;;;;;30.82;39.53;100882.28;4981803;28;20470;-73
2021/09/05 08:35:54;;;;;;;5.93;4.57;;;;;;;30.82;40.16;100887.75;4981950;28;20574;-73
2021/09/05 08:38:19;;;;;;;6.55;5.30;;;;;;;30.81;39.50;100881.47;4983524;28;20534;-73
2021/09/05 08:40:47;;;;;;;5.60;4.57;;;;;;;31.28;38.62;100890.31;4977199;28;20458;-73
2021/09/05 08:43:14;;;;;;;8.30;5.85;;;;;;;31.31;36.65;100887.81;4992074;28;20309;-73
2021/09/05 08:45:41;;;;;;;9.23;6.65;;;;;;;31.12;36.71;100889.56;4977274;28;20043;-73
2021/09/05 08:48:08;;;;;;;6.70;5.20;;;;;;;31.31;37.45;100889.75;4988447;28;20031;-73
2021/09/05 08:50:34;;;;;;;6.32;4.97;;;;;;;31.45;37.87;100895.44;4986018;28;20038;-73
2021/09/05 08:53:01;;;;;;;6.70;5.55;;;;;;;31.84;36.55;100903.63;4988706;28;20436;-74
2021/09/05 08:55:27;;;;;;;8.35;6.38;;;;;;;31.83;36.53;100898.47;4979838;28;20039;-74
2021/09/05 08:57:53;;;;;;;6.82;5.20;;;;;;;31.92;36.21;100903.03;4990108;28;20034;-74
2021/09/05 09:00:18;;;;;;;7.60;5.28;;;;;;;31.97;35.46;100899.47;4984803;28;20046;-74
2021/09/05 09:02:56;;;;;;;7.63;6.07;;;;;;;32.01;36.98;100899.69;4980528;28;20062;-74
2021/09/05 09:05:32;;;;;;;5.95;5.20;;;;;;;32.55;35.55;100906.88;4980024;28;20030;-73
2021/09/05 09:08:07;;;;;;;6.55;4.95;;;;;;;33.02;35.90;100905.25;4986293;28;20031;-74
2021/09/05 09:10:45;;;;;;;6.70;5.40;;;;;;;33.48;34.75;100901.09;4989234;28;20038;-74
2021/09/05 09:13:31;;;;;;;7.80;5.45;;;;;;;33.22;34.13;100907.72;4980877;28;20038;-73
2021/09/05 09:16:04;;;;;;;7.55;5.75;;;;;;;32.90;34.55;100902.13;4990788;28;20124;-73
2021/09/05 09:18:31;;;;;;;6.57;5.22;;;;;;;32.96;34.80;100904.47;4979399;28;20038;-73
2021/09/05 09:21:03;;;;;;;7.00;5.18;;;;;;;33.23;34.28;100903.09;4985446;28;20435;-74
2021/09/05 09:23:32;;;;;;;6.93;5.00;;;;;;;32.75;34.00;100892.97;4975448;28;20089;-74
2021/09/05 09:26:05;;;;;;;5.65;4.75;;;;;;;31.85;36.36;100893.53;4980013;28;20065;-74
2021/09/05 09:28:34;;;;;;;6.72;5.20;;;;;;;31.43;35.09;100889.44;4978752;28;20395;-74
2021/09/05 09:31:11;;;;;;;7.22;5.22;;;;;;;30.57;38.28;100894.94;4986061;28;20126;-73
2021/09/05 09:33:37;;;;;;;6.57;5.05;;;;;;;30.17;40.50;100884.88;4981289;28;20073;-74
2021/09/05 09:36:04;;;;;;;6.57;5.60;;;;;;;29.90;40.25;100891.44;4984631;28;20118;-74
2021/09/05 09:38:31;;;;;;;7.07;5.65;;;;;;;29.81;40.72;100899.31;4975990;28;20075;-74
2021/09/05 09:41:14;;;;;;;7.25;5.38;;;;;;;29.17;41.49;100891.53;4985163;28;20114;-74
2021/09/05 09:43:57;;;;;;;6.82;5.30;;;;;;;29.07;42.13;100891.50;4975610;28;20045;-74
2021/09/05 09:46:26;;;;;;;7.38;5.47;;;;;;;28.95;42.21;100883.50;4988647;28;20038;-73
2021/09/05 09:48:57;;;;;;;6.15;5.15;;;;;;;28.48;43.33;100887.88;4984215;28;20518;-75
2021/09/05 09:51:24;;;;;;;7.68;5.60;;;;;;;28.06;44.67;100877.78;4982827;28;20043;-73
2021/09/05 09:53:50;;;;;;;7.30;5.80;;;;;;;27.93;45.25;100884.47;4988092;28;20429;-73
2021/09/05 09:56:16;;;;;;;7.47;5.70;;;;;;;28.08;45.17;100877.50;4991423;28;20379;-73
2021/09/05 09:58:50;;;;;;;5.90;5.22;;;;;;;28.17;44.28;100868.63;4989233;28;20065;-73
2021/09/05 10:01:21;;;;;;;7.32;5.45;;;;;;;28.08;43.99;100875.63;4981698;28;20101;-73
2021/09/05 10:03:51;;;;;;;6.47;4.95;;;;;;;27.71;43.87;100880.97;4990836;28;20113;-73
2021/09/05 10:06:18;;;;;;;7.93;5.00;;;;;;;27.60;44.23;100873.81;4984135;28;20042;-74
2021/09/05 10:08:44;;;;;;;5.40;4.50;;;;;;;27.62;43.65;100871.66;4979346;28;20035;-73
2021/09/05 10:11:19;;;;;;;5.53;4.95;;;;;;;27.20;44.99;100865.00;4988135;28;20034;-74
2021/09/05 10:13:44;;;;;;;6.65;5.38;;;;;;;27.22;44.36;100865.56;4981835;28;20042;-74
2021/09/05 10:16:11;;;;;;;6.35;5.65;;;;;;;27.06;45.02;100861.81;4989637;28;20050;-75
2021/09/05 10:18:46;;;;;;;6.57;5.40;;;;;;;26.98;44.51;100859.53;4990418;28;20443;-74
2021/09/05 10:21:18;;;;;;;8.45;5.40;;;;;;;27.08;43.64;100864.28;4982282;28;20096;-74
2021/09/05 10:23:50;;;;;;;6.38;5.43;;;;;;;27.10;43.77;100860.22;4978704;28;20045;-74
2021/09/05 10:26:16;;;;;;;7.75;5.72;;;;;;;27.11;44.25;100861.03;4975471;28;20034;-73
2021/09/05 10:28:44;;;;;;;6.85;5.40;;;;;;;26.74;45.38;100850.00;4981909;28;20030;-73
2021/09/05 10:31:11;;;;;;;6.78;5.13;;;;;;;26.69;45.51;100851.56;4986429;28;20573;-73
2021/09/05 10:33:39;;;;;;;6.00;4.93;;;;;;;26.57;46.59;100847.34;4985154;28;20541;-75
2021/09/05 10:36:12;;;;;;;6.63;5.40;;;;;;;26.42;46.92;100848.72;4979034;28;20073;-74
2021/09/05 10:38:40;;;;;;;7.75;5.35;;;;;;;26.63;46.17;100847.16;4984165;28;20125;-74
2021/09/05 10:41:14;;;;;;;7.32;5.38;;;;;;;26.82;46.51;100855.00;4974443;28;20031;-74
2021/09/05 10:43:53;;;;;;;10.50;5.63;;;;;;;26.87;45.70;100850.44;4977408;28;20026;-74
2021/09/05 10:46:20;;;;;;;7.32;6.10;;;;;;;26.68;46.60;100844.50;4993939;28;20038;-74
2021/09/05 10:48:48;;;;;;;6.32;5.22;;;;;;;26.71;48.21;100845.91;4989649;28;20039;-74
2021/09/05 10:51:21;;;;;;;6.50;5.57;;;;;;;26.89;46.93;100851.00;4978731;28;20031;-73
2021/09/05 10:53:54;;;;;;;8.77;6.38;;;;;;;26.86;46.96;100854.25;4984506;28;20335;-74
2021/09/05 10:56:20;;;;;;;7.63;6.05;;;;;;;26.77;47.53;100850.31;4987900;28;20398;-74
2021/09/05 10:58:53;;;;;;;8.07;5.90;;;;;;;26.63;46.15;100843.63;4993676;28;20595;-74
2021/09/05 11:01:27;;;;;;;7.70;6.10;;;;;;;26.68;46.61;100846.41;4983364;28;20042;-74
2021/09/05 11:04:14;;;;;;;7.82;6.13;;;;;;;26.67;46.04;100844.75;4988585;28;20030;-75
2021/09/05 11:06:41;;;;;;;9.00;5.95;;;;;;;26.60;46.54;100835.97;4991974;28;20556;-74
2021/09/05 11:12:18;;;;;;;7.65;5.90;;;;;;;26.90;46.35;100843.69;4991546;28;20054;-74
2021/09/05 11:14:47;;;;;;;6.15;5.45;;;;;;;26.85;47.72;100843.63;4989277;28;20045;-74
2021/09/05 11:17:18;;;;;;;7.40;5.70;;;;;;;26.97;45.04;100838.88;4979370;28;20043;-74
2021/09/05 11:20:09;;;;;;;8.20;5.05;;;;;;;26.92;45.13;100835.31;4983143;28;20027;-73
2021/09/05 11:22:39;;;;;;;6.47;4.75;;;;;;;26.82;45.63;100830.59;4984115;28;20044;-75
2021/09/05 11:25:19;;;;;;;6.83;4.93;;;;;;;26.90;44.75;100830.94;4985884;28;20069;-73
2021/09/05 11:28:06;;;;;;;6.13;5.13;;;;;;;26.89;46.80;100828.50;4990080;28;20117;-74
2021/09/05 11:30:36;;;;;;;8.02;5.85;;;;;;;27.04;46.41;100836.00;4982295;28;20065;-74